To NAV CANADA Home Page Login to a new session Search on AWWS site Feedback and Comments Disclaimer Vers la page française équivalente Tips FAQ What's new on the site To the Forecasts and Observations / NOTAM section To "File a Flight Plan" website Publications and other links Update of the User's profile FIC Telephone Numbers My Weather Data Folder Route Weather Data Regional Weather Data Local Weather Data To the Forecasts and Observations / NOTAM section
Request Generated 02/23/2017 at 20:47:38 UTC . Weather information available at that time is displayed.

METAR/TAF

MONTREAL/ST-HUBERT/QC    (show WxCam)

SPECI CYHU 232041Z AUTO 20008KT SCT023 OVC070 09/07 A2955 RMK WX MISG
VIS MISG PCPN MISG SLP008=
METAR CYHU 232000Z AUTO 17011KT OVC023 08/06 A2954 RMK WX MISG VIS
MISG PCPN MISG SLP004=
SPECI CYHU 231933Z AUTO 18012KT OVC023 08/06 A2953 RMK WX MISG VIS
MISG PCPN MISG SLP003=
METAR CYHU 231900Z AUTO 19009KT OVC027 08/05 A2953 RMK LTNG DIST N NE
WX MISG VIS MISG PCPN MISG SLP001=
METAR CYHU 231800Z AUTO 22011G19KT BKN048 OVC060 09/04 A2954 RMK
PRESRR WX MISG VIS MISG PCPN MISG SLP004=

TAF CYHU 231740Z 2318/2418 FCST NOT AVBL DUE SENSORS INOPV
RMK FCST BASED ON AUTO OBS. NXT FCST BY 240000Z=
Your time UTC time
Weather data provided by Environment Canada and NAV CANADA